Time;durP1;ratioP1;P1;durP2;ratioP2;P2;SDS_P1;SDS_P2;PMS_P1;PMS_P2;Temp;Humidity;BMP_temperature;BMP_pressure;BME280_temperature;BME280_humidity;BME280_pressure;Samples;Min_cycle;Max_cycle;Signal;HPM_P1;HPM_P2
2021/11/17 02:27:52;;;;;;;25.83;15.60;;;;;;;7.05;76.99;92838.91;2034092;70;20167;-75
2021/11/17 02:30:39;;;;;;;28.65;15.90;;;;;;;6.93;76.80;92837.25;2034075;70;20140;-72
2021/11/17 02:33:20;;;;;;;27.27;16.02;;;;;;;7.00;76.61;92839.19;2033897;70;20166;-74
2021/11/17 02:36:37;;;;;;;27.10;15.40;;;;;;;6.99;76.73;92837.72;2031300;70;20171;-71
2021/11/17 02:39:08;;;;;;;26.23;15.38;;;;;;;7.10;76.18;92837.16;2028703;70;20152;-76
2021/11/17 02:41:41;;;;;;;23.42;14.93;;;;;;;7.02;76.75;92839.34;2034345;70;20662;-71
2021/11/17 02:44:19;;;;;;;23.13;14.70;;;;;;;6.82;77.44;92838.53;2045865;70;20158;-74
2021/11/17 02:46:51;;;;;;;24.80;14.52;;;;;;;6.86;76.82;92841.66;2048246;70;20151;-80
2021/11/17 02:50:04;;;;;;;22.52;14.27;;;;;;;6.73;77.12;92844.81;2048261;70;20138;-74
2021/11/17 02:52:36;;;;;;;23.92;14.38;;;;;;;6.74;77.76;92835.88;2034301;70;20128;-70
2021/11/17 02:55:10;;;;;;;28.27;14.70;;;;;;;6.61;77.95;92839.78;2046806;70;20306;-75
2021/11/17 02:58:01;;;;;;;23.63;14.48;;;;;;;6.96;76.82;92828.41;2048179;70;20155;-74
2021/11/17 03:00:41;;;;;;;22.83;14.13;;;;;;;7.00;76.47;92836.38;2048529;70;20146;-71
2021/11/17 03:03:18;;;;;;;22.73;13.98;;;;;;;6.98;76.23;92834.19;2049798;70;20622;-73
2021/11/17 03:05:44;;;;;;;23.85;14.90;;;;;;;6.99;76.42;92835.66;2048196;70;20246;-70
2021/11/17 03:08:12;;;;;;;25.27;13.60;;;;;;;7.04;76.46;92836.69;2048380;70;20566;-70
2021/11/17 03:10:48;;;;;;;23.90;14.00;;;;;;;6.99;76.25;92832.84;2048121;70;20698;-77
2021/11/17 03:13:38;;;;;;;22.88;14.35;;;;;;;7.03;75.92;92835.97;2048249;70;20147;-73
2021/11/17 03:16:24;;;;;;;20.58;13.63;;;;;;;7.04;75.82;92833.91;2048256;70;20146;-74
2021/11/17 03:19:06;;;;;;;23.60;14.80;;;;;;;6.97;76.29;92838.31;2041240;70;20233;-76
2021/11/17 03:21:50;;;;;;;23.00;13.40;;;;;;;7.01;76.42;92843.47;2048288;70;20131;-79
2021/11/17 03:24:41;;;;;;;25.15;14.68;;;;;;;6.96;76.09;92845.22;2048224;70;20239;-76
2021/11/17 03:27:17;;;;;;;23.80;14.18;;;;;;;7.05;76.42;92847.31;2048146;70;20170;-78
2021/11/17 03:29:58;;;;;;;24.45;14.40;;;;;;;7.08;75.43;92845.41;2048311;70;20246;-76
2021/11/17 03:32:46;;;;;;;22.25;13.75;;;;;;;7.03;75.88;92852.03;2048225;70;20150;-76
2021/11/17 03:35:49;;;;;;;28.73;15.13;;;;;;;6.89;76.67;92862.88;2048184;70;20542;-81
2021/11/17 03:38:24;;;;;;;25.25;14.73;;;;;;;7.05;75.74;92852.16;2048164;70;20134;-74
2021/11/17 03:41:02;;;;;;;25.70;15.25;;;;;;;6.93;77.34;92859.66;2048022;70;20181;-75
2021/11/17 03:43:45;;;;;;;29.58;15.95;;;;;;;6.90;77.09;92863.63;2048237;70;20177;-75
2021/11/17 03:46:20;;;;;;;28.27;14.75;;;;;;;7.03;76.51;92855.56;2048215;70;20182;-74
2021/11/17 03:48:52;;;;;;;28.00;15.75;;;;;;;7.03;76.15;92854.81;2048135;70;20154;-79
2021/11/17 03:51:26;;;;;;;25.17;15.68;;;;;;;7.09;75.87;92853.22;2048160;70;20151;-74
2021/11/17 03:54:23;;;;;;;25.00;15.52;;;;;;;7.06;76.48;92853.66;2048163;70;20586;-77
2021/11/17 03:56:55;;;;;;;27.70;14.90;;;;;;;7.07;75.82;92857.94;2047974;70;20170;-72
2021/11/17 03:59:43;;;;;;;25.33;14.60;;;;;;;7.04;76.02;92861.88;2047454;70;20233;-75
2021/11/17 04:02:20;;;;;;;21.75;14.07;;;;;;;7.10;75.28;92860.31;2047968;70;20784;-75
2021/11/17 04:04:59;;;;;;;25.30;16.08;;;;;;;6.97;76.06;92868.38;2048029;70;20195;-74
2021/11/17 04:07:49;;;;;;;21.77;13.55;;;;;;;6.67;78.42;92859.09;2048033;70;20178;-78
2021/11/17 04:10:35;;;;;;;27.77;15.27;;;;;;;6.70;78.09;92862.81;2047891;70;20229;-78
2021/11/17 04:13:18;;;;;;;25.88;14.82;;;;;;;6.65;77.95;92861.00;2048262;70;20582;-75
2021/11/17 04:16:02;;;;;;;25.35;14.90;;;;;;;6.60;79.00;92852.31;2048088;70;20162;-72
2021/11/17 04:18:37;;;;;;;26.90;15.00;;;;;;;6.79;77.81;92860.03;2048108;70;20582;-74
2021/11/17 04:21:21;;;;;;;26.10;14.98;;;;;;;6.79;77.33;92857.25;2048159;70;20147;-75
2021/11/17 04:23:54;;;;;;;26.92;15.15;;;;;;;6.52;79.11;92853.72;2048119;70;20143;-71
2021/11/17 04:26:28;;;;;;;22.88;14.20;;;;;;;6.90;76.89;92864.34;2047924;70;20139;-75
2021/11/17 04:29:18;;;;;;;22.73;14.48;;;;;;;6.93;77.08;92856.84;2048057;70;20215;-73
2021/11/17 04:32:09;;;;;;;26.90;16.00;;;;;;;6.83;77.30;92860.34;2048050;70;20138;-71
2021/11/17 04:34:41;;;;;;;25.05;14.52;;;;;;;6.82;77.26;92864.44;2048074;70;20139;-70
2021/11/17 04:37:17;;;;;;;26.75;15.23;;;;;;;6.71;77.73;92861.47;2048030;70;20139;-73
2021/11/17 04:39:52;;;;;;;26.33;14.95;;;;;;;6.74;78.21;92866.66;2047634;70;20149;-73
2021/11/17 04:42:24;;;;;;;28.92;15.52;;;;;;;6.75;77.89;92861.78;2047858;70;20213;-75
2021/11/17 04:45:10;;;;;;;25.38;14.70;;;;;;;6.90;76.88;92864.34;2047993;70;20154;-72
2021/11/17 04:47:50;;;;;;;22.08;13.93;;;;;;;6.95;75.81;92854.94;2048148;70;20174;-70
2021/11/17 04:50:22;;;;;;;24.55;14.93;;;;;;;6.89;75.83;92857.28;2049420;70;20153;-74
2021/11/17 04:53:09;;;;;;;25.92;15.20;;;;;;;6.90;76.25;92861.53;2048265;70;20138;-70
2021/11/17 04:55:43;;;;;;;25.02;15.30;;;;;;;6.94;76.33;92859.06;2045461;70;20592;-69
2021/11/17 04:58:21;;;;;;;27.75;14.88;;;;;;;6.79;77.22;92856.50;2047965;70;20246;-70
2021/11/17 05:01:12;;;;;;;26.90;15.02;;;;;;;6.86;76.43;92859.16;2047958;70;20147;-70
2021/11/17 05:04:00;;;;;;;28.83;15.70;;;;;;;6.88;76.51;92858.59;2046352;70;20223;-72
2021/11/17 05:06:51;;;;;;;32.05;18.27;;;;;;;6.85;76.79;92859.75;2048082;70;20142;-78
2021/11/17 05:09:31;;;;;;;28.15;16.40;;;;;;;6.62;78.46;92865.69;2041740;70;20154;-70
2021/11/17 05:12:16;;;;;;;30.50;15.57;;;;;;;6.51;79.53;92866.25;2047746;70;20142;-78
2021/11/17 05:15:00;;;;;;;29.85;15.43;;;;;;;6.69;78.04;92866.91;2048199;70;20595;-74
2021/11/17 05:17:32;;;;;;;29.63;16.60;;;;;;;6.75;78.56;92864.59;2048370;70;20242;-74
2021/11/17 05:19:58;;;;;;;30.48;16.23;;;;;;;6.62;78.67;92874.09;2048347;70;20508;-77
2021/11/17 05:22:58;;;;;;;25.77;15.70;;;;;;;6.88;77.68;92881.72;2048702;70;20189;-76
2021/11/17 05:25:51;;;;;;;28.90;16.00;;;;;;;6.82;77.74;92878.44;2048402;70;20519;-74
2021/11/17 05:28:45;;;;;;;26.38;15.07;;;;;;;6.98;76.49;92887.38;2048382;70;20209;-70
2021/11/17 05:31:32;;;;;;;26.40;15.35;;;;;;;6.91;76.74;92879.06;2048394;70;20139;-78
2021/11/17 05:34:16;;;;;;;29.17;15.70;;;;;;;6.81;77.75;92879.78;2048692;70;20147;-80
2021/11/17 05:37:16;;;;;;;27.60;14.50;;;;;;;6.74;77.75;92882.69;2048438;70;20583;-80
2021/11/17 05:40:03;;;;;;;29.55;15.50;;;;;;;6.86;77.75;92889.22;2048448;70;20150;-81
2021/11/17 05:43:07;;;;;;;30.88;15.75;;;;;;;6.68;78.36;92887.81;2048434;70;20168;-80
2021/11/17 05:46:06;;;;;;;33.97;15.15;;;;;;;6.51;79.19;92885.81;2034501;70;20227;-76
2021/11/17 05:48:47;;;;;;;40.05;15.10;;;;;;;6.45;79.85;92886.06;2034691;70;20152;-77
2021/11/17 05:51:12;;;;;;;25.90;14.02;;;;;;;6.77;78.30;92896.25;2034589;70;20663;-76
2021/11/17 05:53:43;;;;;;;27.55;14.23;;;;;;;6.67;79.12;92897.53;2034662;70;20265;-81
2021/11/17 05:56:27;;;;;;;28.02;14.18;;;;;;;6.43;80.78;92899.91;2031606;70;20560;-73
2021/11/17 05:59:05;;;;;;;31.02;13.80;;;;;;;6.42;80.31;92903.28;2034477;70;20168;-75
2021/11/17 06:01:45;;;;;;;26.73;14.02;;;;;;;6.58;79.49;92899.69;2034614;70;20219;-73
2021/11/17 06:04:11;;;;;;;43.67;15.60;;;;;;;6.45;79.99;92910.50;2034464;70;20152;-76
2021/11/17 06:06:38;;;;;;;34.35;16.85;;;;;;;6.44;80.55;92906.97;2034634;70;20322;-72
2021/11/17 06:09:06;;;;;;;27.65;15.07;;;;;;;6.42;80.41;92909.63;2034462;70;20144;-77
2021/11/17 06:11:37;;;;;;;35.20;14.32;;;;;;;6.09;82.24;92901.44;2034349;70;20144;-76
2021/11/17 06:14:06;;;;;;;53.50;14.90;;;;;;;5.97;82.82;92910.91;2034533;70;20160;-79
2021/11/17 06:16:40;;;;;;;30.75;14.13;;;;;;;6.20;82.31;92900.19;2034413;70;20609;-69
2021/11/17 06:19:06;;;;;;;36.00;13.98;;;;;;;6.42;80.76;92906.09;2038763;70;20158;-68
2021/11/17 06:21:33;;;;;;;31.42;13.63;;;;;;;6.34;81.20;92898.50;2048247;70;20151;-69
2021/11/17 06:24:03;;;;;;;24.80;13.35;;;;;;;6.51;80.26;92900.53;2048307;70;20167;-70
2021/11/17 06:26:33;;;;;;;22.33;12.90;;;;;;;6.63;79.02;92906.34;2047592;70;20186;-71
2021/11/17 06:29:02;;;;;;;25.05;12.98;;;;;;;6.51;79.77;92916.59;2048345;70;20178;-71
2021/11/17 06:31:31;;;;;;;39.30;13.90;;;;;;;6.14;81.21;92918.50;2048485;70;20146;-75
2021/11/17 06:33:57;;;;;;;28.48;14.00;;;;;;;6.20;82.10;92925.34;2048287;70;20241;-72
2021/11/17 06:36:23;;;;;;;27.48;13.88;;;;;;;6.32;81.20;92937.50;2047798;70;20141;-68
2021/11/17 06:38:49;;;;;;;36.17;15.65;;;;;;;5.82;83.57;92932.09;2049042;70;20169;-69
2021/11/17 06:41:16;;;;;;;33.53;16.00;;;;;;;5.97;83.52;92931.19;2048372;70;20153;-69
2021/11/17 06:43:41;;;;;;;37.33;13.88;;;;;;;6.18;82.78;92936.34;2047677;70;20185;-70
2021/11/17 06:46:07;;;;;;;40.42;13.25;;;;;;;5.96;82.38;92935.31;2048258;70;20150;-69
2021/11/17 06:48:34;;;;;;;27.13;12.95;;;;;;;6.05;83.28;92933.91;2048253;70;20527;-72
2021/11/17 06:51:01;;;;;;;31.83;13.25;;;;;;;6.01;83.08;92939.19;2047624;70;20250;-78
2021/11/17 06:53:28;;;;;;;31.40;12.43;;;;;;;6.26;81.51;92939.06;2048197;70;20603;-78
2021/11/17 06:55:55;;;;;;;20.33;11.48;;;;;;;6.38;81.04;92940.06;2048078;70;20155;-73
2021/11/17 06:58:21;;;;;;;22.55;12.13;;;;;;;6.57;79.89;92942.97;2048159;70;20155;-72
2021/11/17 07:00:50;;;;;;;33.47;12.52;;;;;;;6.46;79.92;92943.50;2048250;70;20238;-75
2021/11/17 07:03:16;;;;;;;42.13;12.45;;;;;;;5.96;82.29;92960.47;2048242;70;20321;-76
2021/11/17 07:05:42;;;;;;;25.88;11.77;;;;;;;6.30;81.66;92954.13;2048256;70;20246;-76
2021/11/17 07:08:08;;;;;;;39.92;11.85;;;;;;;6.23;81.48;92945.81;2048205;70;20532;-75
2021/11/17 07:10:36;;;;;;;45.58;13.25;;;;;;;5.94;82.68;92951.16;2047525;70;20135;-75
2021/11/17 07:13:04;;;;;;;33.50;12.88;;;;;;;6.04;83.28;92952.72;2048202;70;20264;-81
2021/11/17 07:15:31;;;;;;;24.25;12.00;;;;;;;6.16;82.63;92957.81;2048158;70;20142;-74
2021/11/17 07:17:57;;;;;;;21.13;12.02;;;;;;;5.88;83.13;92954.19;2048138;70;20189;-71
2021/11/17 07:20:23;;;;;;;26.27;12.25;;;;;;;5.89;83.94;92949.34;2048130;70;20182;-77
2021/11/17 07:22:50;;;;;;;22.05;12.50;;;;;;;5.84;83.99;92949.00;2048339;70;20257;-81
2021/11/17 07:25:19;;;;;;;28.25;13.40;;;;;;;5.85;84.02;92960.91;2048004;70;20587;-74
2021/11/17 07:27:45;;;;;;;24.08;12.40;;;;;;;6.00;83.34;92960.81;2048244;70;20246;-75
2021/11/17 07:30:14;;;;;;;28.02;12.38;;;;;;;5.49;85.48;92961.44;2047678;70;20621;-78
2021/11/17 07:32:40;;;;;;;24.90;12.00;;;;;;;5.81;84.39;92968.97;2048199;70;20245;-81
2021/11/17 07:35:08;;;;;;;22.20;12.27;;;;;;;6.03;83.36;92961.69;2048268;70;20167;-76
2021/11/17 07:37:34;;;;;;;36.08;12.75;;;;;;;5.84;83.25;92971.34;2048163;70;20158;-72
2021/11/17 07:40:00;;;;;;;24.83;11.88;;;;;;;5.72;84.74;92970.34;2048156;70;20198;-78
2021/11/17 07:42:26;;;;;;;31.58;13.00;;;;;;;5.83;84.33;92972.66;2048290;70;20196;-79
2021/11/17 07:44:52;;;;;;;30.13;12.27;;;;;;;6.06;83.03;92974.53;2048339;70;20162;-76
2021/11/17 07:47:19;;;;;;;31.20;12.20;;;;;;;6.14;82.39;92972.38;2047712;70;20531;-75
2021/11/17 07:49:44;;;;;;;30.33;12.13;;;;;;;6.05;83.15;92973.06;2048160;70;20139;-76
2021/11/17 07:52:10;;;;;;;30.35;12.07;;;;;;;5.82;83.64;92976.78;2048244;70;20502;-76
2021/11/17 07:54:36;;;;;;;37.85;13.02;;;;;;;5.76;84.70;92979.06;2048111;70;20607;-76
2021/11/17 07:57:05;;;;;;;19.83;11.65;;;;;;;5.64;85.01;92985.72;2048078;70;20154;-71
2021/11/17 07:59:32;;;;;;;25.02;12.70;;;;;;;5.33;86.08;92983.91;2047428;70;20182;-73
2021/11/17 08:02:06;;;;;;;20.30;12.15;;;;;;;5.64;85.87;92986.44;2048110;70;20238;-75
2021/11/17 08:04:34;;;;;;;21.33;11.90;;;;;;;5.78;85.30;92987.63;2048281;70;20150;-76
2021/11/17 08:07:04;;;;;;;18.70;11.65;;;;;;;6.10;83.46;92992.38;2047567;70;20595;-78
2021/11/17 08:09:30;;;;;;;25.88;11.88;;;;;;;5.79;83.99;92994.69;2048111;70;20646;-74
2021/11/17 08:11:55;;;;;;;18.25;11.40;;;;;;;5.99;83.88;92998.44;2047926;70;20143;-73
2021/11/17 08:14:21;;;;;;;19.27;11.10;;;;;;;6.02;83.13;93002.88;2048161;70;20153;-77
2021/11/17 08:16:48;;;;;;;19.20;10.88;;;;;;;6.04;83.43;92999.50;2048113;70;20164;-77
2021/11/17 08:19:14;;;;;;;19.08;10.88;;;;;;;6.39;81.53;93002.31;2047998;70;20187;-78
2021/11/17 08:21:40;;;;;;;18.23;11.05;;;;;;;6.46;81.18;92996.63;2047525;70;20154;-74
2021/11/17 08:24:06;;;;;;;19.08;10.63;;;;;;;6.23;81.54;93004.50;2047638;70;20595;-79
2021/11/17 08:26:31;;;;;;;19.05;10.85;;;;;;;6.46;81.56;92998.66;2049705;70;20149;-77
2021/11/17 08:28:57;;;;;;;21.17;11.68;;;;;;;6.18;81.73;92997.13;2048729;70;20139;-78
2021/11/17 08:31:24;;;;;;;18.60;11.20;;;;;;;6.50;81.16;93001.78;2048238;70;20142;-74
2021/11/17 08:33:52;;;;;;;17.90;10.68;;;;;;;6.77;80.12;93005.38;2048077;70;20226;-72
2021/11/17 08:36:19;;;;;;;19.55;11.50;;;;;;;6.80;79.84;93011.88;2047494;70;20198;-70
2021/11/17 08:38:45;;;;;;;17.52;10.38;;;;;;;6.76;80.14;93017.88;2047803;70;20151;-71
2021/11/17 08:41:11;;;;;;;19.35;10.88;;;;;;;6.69;80.49;93015.94;2047819;70;20151;-72
2021/11/17 08:43:41;;;;;;;18.75;10.35;;;;;;;6.85;79.11;93016.47;2047928;70;20233;-75
2021/11/17 08:46:06;;;;;;;20.23;10.45;;;;;;;6.90;79.16;93015.47;2047802;70;20151;-75
2021/11/17 08:48:35;;;;;;;16.23;11.00;;;;;;;7.02;79.15;93016.44;2048235;70;20154;-80
2021/11/17 08:51:03;;;;;;;15.63;10.27;;;;;;;6.87;78.80;93020.19;2048538;70;20176;-82
2021/11/17 08:53:32;;;;;;;15.95;9.85;;;;;;;7.25;77.65;93026.59;2048409;70;20245;-77
2021/11/17 08:55:59;;;;;;;15.88;10.07;;;;;;;7.19;77.78;93026.84;2048286;70;20146;-80
2021/11/17 08:58:26;;;;;;;16.63;9.52;;;;;;;6.95;78.70;93022.13;2047955;70;20239;-78
2021/11/17 09:00:52;;;;;;;16.52;10.35;;;;;;;7.29;78.16;93024.09;2048577;70;20153;-81
2021/11/17 09:03:19;;;;;;;21.25;11.10;;;;;;;6.86;77.95;93018.69;2048439;70;20151;-76
2021/11/17 09:05:51;;;;;;;17.50;10.80;;;;;;;7.12;78.08;93024.91;2048540;70;20153;-72
2021/11/17 09:08:19;;;;;;;13.75;8.57;;;;;;;7.41;76.93;93021.50;2048388;70;20493;-80
2021/11/17 09:10:48;;;;;;;17.25;10.18;;;;;;;7.49;77.14;93028.47;2048303;70;20679;-75
2021/11/17 09:13:16;;;;;;;15.57;9.60;;;;;;;7.43;76.33;93027.28;2048587;70;20249;-76
2021/11/17 09:15:45;;;;;;;14.15;9.32;;;;;;;6.89;77.90;93028.00;2048298;70;20222;-70
2021/11/17 09:18:12;;;;;;;15.05;9.38;;;;;;;6.95;77.46;93038.94;2048228;70;20151;-70
2021/11/17 09:20:39;;;;;;;12.77;9.07;;;;;;;7.02;77.42;93026.91;2048420;70;20685;-70
2021/11/17 09:23:08;;;;;;;16.42;8.75;;;;;;;7.46;76.98;93026.09;2048534;70;20145;-71
2021/11/17 09:25:33;;;;;;;14.07;9.50;;;;;;;7.35;77.19;93036.50;2048296;70;20245;-72
2021/11/17 09:27:59;;;;;;;16.05;8.40;;;;;;;7.58;76.61;93033.38;2048386;70;20702;-80
2021/11/17 09:30:28;;;;;;;13.07;8.57;;;;;;;7.95;76.44;93030.53;2048390;70;20151;-80
2021/11/17 09:32:57;;;;;;;15.07;9.15;;;;;;;8.09;75.17;93034.41;2048396;70;20670;-80
2021/11/17 09:35:23;;;;;;;13.48;8.43;;;;;;;8.05;74.26;93033.38;2048385;70;20154;-76
2021/11/17 09:37:52;;;;;;;12.48;8.88;;;;;;;8.08;73.92;93037.81;2048371;70;20146;-81
2021/11/17 09:40:26;;;;;;;13.45;8.50;;;;;;;8.00;73.75;93040.00;2048162;70;20155;-71
2021/11/17 09:42:54;;;;;;;12.82;7.95;;;;;;;7.95;73.58;93043.81;2048476;70;20155;-74
2021/11/17 09:45:22;;;;;;;14.75;9.00;;;;;;;7.77;73.66;93038.31;2048377;70;20240;-73
2021/11/17 09:47:49;;;;;;;13.30;8.43;;;;;;;7.70;74.34;93046.81;2048275;70;20221;-77
2021/11/17 09:50:40;;;;;;;13.45;8.35;;;;;;;7.87;73.42;93043.94;2048272;70;20163;-74
2021/11/17 09:53:13;;;;;;;12.85;8.18;;;;;;;7.25;74.08;93040.59;2048271;70;20218;-69
2021/11/17 09:55:51;;;;;;;12.63;8.25;;;;;;;7.74;73.39;93039.47;2048271;70;20702;-76
2021/11/17 09:58:30;;;;;;;12.13;8.40;;;;;;;7.78;73.95;93036.97;2048332;70;20599;-71
2021/11/17 10:01:14;;;;;;;12.40;8.40;;;;;;;7.94;73.22;93034.69;2048139;70;20150;-73
2021/11/17 10:03:43;;;;;;;12.13;7.57;;;;;;;8.09;71.93;93042.81;2047784;70;20250;-70
2021/11/17 10:06:54;;;;;;;11.05;7.47;;;;;;;8.12;72.42;93043.72;2048286;70;20747;-74
2021/11/17 10:15:07;;;;;;;42.15;8.90;;;;;;;8.38;72.11;93039.34;2041562;70;20230;-71
2021/11/17 10:17:38;;;;;;;12.77;7.88;;;;;;;8.33;71.48;93043.16;2047782;70;20234;-76
2021/11/17 10:20:38;;;;;;;12.38;7.93;;;;;;;8.46;72.20;93042.03;2048361;70;20151;-74
2021/11/17 10:23:07;;;;;;;11.55;8.40;;;;;;;8.32;71.80;93042.41;2038916;70;20146;-77
2021/11/17 10:25:46;;;;;;;12.10;8.10;;;;;;;8.40;71.85;93043.06;2047752;70;20142;-74
2021/11/17 10:28:19;;;;;;;12.25;8.35;;;;;;;7.70;72.01;93044.78;2048301;70;20131;-77
2021/11/17 10:30:50;;;;;;;11.80;8.30;;;;;;;7.89;72.85;93046.91;2048330;70;20174;-76
2021/11/17 10:33:22;;;;;;;12.90;9.00;;;;;;;7.81;72.23;93043.47;2048284;70;20221;-72
2021/11/17 10:36:17;;;;;;;10.37;7.77;;;;;;;7.96;72.33;93053.69;2048314;70;20135;-80
2021/11/17 10:38:47;;;;;;;11.73;7.15;;;;;;;8.35;70.42;93046.88;2047652;70;20691;-80
2021/11/17 10:41:23;;;;;;;12.40;7.20;;;;;;;8.43;70.07;93034.78;2044856;70;20143;-73
2021/11/17 10:43:54;;;;;;;11.60;7.60;;;;;;;8.55;69.63;93041.28;2048356;70;20147;-72
2021/11/17 10:46:28;;;;;;;11.93;7.55;;;;;;;8.54;69.58;93034.94;2048208;70;20167;-75
2021/11/17 10:48:57;;;;;;;9.65;6.70;;;;;;;8.59;69.16;93027.56;2047816;70;20610;-71
2021/11/17 10:51:25;;;;;;;10.05;7.00;;;;;;;8.59;69.06;93021.94;2047715;70;20213;-70
2021/11/17 10:53:55;;;;;;;9.93;6.72;;;;;;;8.70;68.21;93017.81;2047684;70;20154;-73
2021/11/17 10:56:24;;;;;;;10.88;6.40;;;;;;;8.75;68.04;93023.13;2047598;70;20158;-70
2021/11/17 10:58:52;;;;;;;8.48;5.85;;;;;;;8.86;67.60;93016.91;2048119;70;20254;-69
2021/11/17 11:01:32;;;;;;;21.38;6.05;;;;;;;8.78;68.02;93024.00;2048086;70;20155;-70
2021/11/17 11:04:02;;;;;;;10.82;6.35;;;;;;;8.82;67.84;93027.84;2048195;70;20167;-70
2021/11/17 11:06:30;;;;;;;10.80;6.50;;;;;;;8.81;67.31;93026.38;2047965;70;20149;-71
2021/11/17 11:08:55;;;;;;;9.65;6.60;;;;;;;8.64;67.94;93034.94;2047985;70;20135;-72
2021/11/17 11:11:22;;;;;;;9.00;6.30;;;;;;;8.44;68.02;93041.88;2047862;70;20154;-71
2021/11/17 11:14:01;;;;;;;11.30;7.30;;;;;;;8.36;68.21;93042.00;2048109;70;20170;-74
2021/11/17 11:16:36;;;;;;;9.40;7.07;;;;;;;8.27;67.93;93046.25;2048064;70;20229;-76
2021/11/17 11:19:10;;;;;;;9.65;6.50;;;;;;;8.56;68.08;93045.56;2048046;70;20177;-72
2021/11/17 11:21:42;;;;;;;10.60;6.97;;;;;;;8.52;67.98;93040.41;2048125;70;20139;-75
2021/11/17 11:24:12;;;;;;;9.50;6.70;;;;;;;8.40;67.78;93037.44;2047558;70;20155;-76
2021/11/17 11:27:00;;;;;;;9.20;6.60;;;;;;;8.64;67.98;93043.38;2047908;70;20162;-76
2021/11/17 11:29:29;;;;;;;8.32;6.13;;;;;;;8.69;67.45;93044.41;2048115;70;20151;-72
2021/11/17 11:32:04;;;;;;;7.72;5.35;;;;;;;8.70;67.33;93038.19;2048093;70;20242;-74
2021/11/17 11:35:08;;;;;;;8.95;6.45;;;;;;;8.45;67.75;93026.53;2048059;70;20598;-76
2021/11/17 11:37:33;;;;;;;12.27;6.70;;;;;;;8.05;68.42;93031.28;2047958;70;20542;-71
2021/11/17 11:40:02;;;;;;;11.30;6.45;;;;;;;8.18;68.66;93027.34;2047870;70;20626;-71
2021/11/17 11:42:59;;;;;;;9.70;6.80;;;;;;;8.29;68.04;93023.22;2047943;70;20154;-77
2021/11/17 11:45:25;;;;;;;11.20;6.38;;;;;;;8.08;68.85;93015.38;2047939;70;20150;-69
2021/11/17 11:48:01;;;;;;;11.93;5.75;;;;;;;8.07;69.59;93025.84;2047959;70;20206;-74
2021/11/17 11:50:33;;;;;;;8.27;5.90;;;;;;;8.21;68.82;93022.63;2048002;70;20143;-70
2021/11/17 11:53:19;;;;;;;10.38;6.47;;;;;;;8.10;69.61;93033.06;2048103;70;20184;-75
2021/11/17 11:55:53;;;;;;;9.50;6.18;;;;;;;8.49;68.76;93035.97;2047971;70;20177;-70
2021/11/17 11:58:24;;;;;;;9.75;5.97;;;;;;;8.47;68.34;93044.22;2047862;70;20588;-76
2021/11/17 12:01:05;;;;;;;8.52;5.97;;;;;;;8.55;67.63;93042.03;2048198;70;20158;-81
2021/11/17 12:03:35;;;;;;;9.35;5.68;;;;;;;8.65;68.06;93039.97;2048709;70;20145;-76
2021/11/17 12:06:12;;;;;;;9.18;6.68;;;;;;;8.79;67.16;93043.06;2048990;70;20146;-79
2021/11/17 12:08:59;;;;;;;8.52;6.22;;;;;;;8.74;67.87;93044.09;2048184;70;20143;-80
2021/11/17 12:11:29;;;;;;;9.27;6.22;;;;;;;8.73;67.57;93042.63;2047956;70;20159;-79
2021/11/17 12:14:13;;;;;;;11.60;6.13;;;;;;;8.80;67.04;93030.53;2048032;70;20146;-81
2021/11/17 12:16:41;;;;;;;9.70;6.55;;;;;;;8.75;66.96;93039.97;2048081;70;20131;-77
2021/11/17 12:19:31;;;;;;;8.27;6.40;;;;;;;8.60;67.04;93038.19;2048089;70;20150;-73
2021/11/17 12:21:59;;;;;;;7.65;5.72;;;;;;;8.27;67.69;93048.31;2047560;70;20146;-78
2021/11/17 12:24:30;;;;;;;8.27;6.28;;;;;;;8.43;68.53;93034.78;2048937;70;20206;-71
2021/11/17 12:27:13;;;;;;;8.10;6.03;;;;;;;8.50;67.64;93039.53;2049054;70;20139;-74
2021/11/17 12:29:59;;;;;;;8.35;5.85;;;;;;;8.65;66.93;93036.41;2049095;70;20181;-72
2021/11/17 12:32:34;;;;;;;9.85;6.38;;;;;;;8.19;67.83;93037.22;2048565;70;20155;-78
2021/11/17 12:35:05;;;;;;;11.85;6.53;;;;;;;8.11;68.95;93040.19;2048182;70;20266;-70
2021/11/17 12:37:37;;;;;;;9.20;6.32;;;;;;;8.17;67.86;93037.09;2048803;70;20222;-73
2021/11/17 12:40:10;;;;;;;9.45;5.82;;;;;;;8.44;67.86;93044.69;2048840;70;20613;-70
2021/11/17 12:42:41;;;;;;;8.82;6.22;;;;;;;8.54;67.04;93037.75;2048833;70;20186;-70
2021/11/17 12:45:28;;;;;;;8.68;6.45;;;;;;;8.61;66.61;93038.91;2048996;70;20151;-69
2021/11/17 12:48:10;;;;;;;10.07;6.47;;;;;;;8.62;66.56;93037.63;2048918;70;20181;-69
2021/11/17 12:50:46;;;;;;;8.65;5.80;;;;;;;8.44;67.17;93039.09;2048994;70;20174;-68
2021/11/17 12:53:20;;;;;;;8.23;6.03;;;;;;;8.48;67.09;93037.31;2048848;70;20154;-70
2021/11/17 12:55:55;;;;;;;10.60;6.18;;;;;;;8.42;67.19;93033.31;2048668;70;20154;-69
2021/11/17 12:58:35;;;;;;;7.72;5.88;;;;;;;8.60;67.11;93037.44;2048776;70;20146;-68
2021/11/17 13:01:10;;;;;;;8.25;6.25;;;;;;;8.70;66.47;93032.56;2048786;70;20142;-68
2021/11/17 13:03:48;;;;;;;8.40;6.13;;;;;;;8.35;67.21;93041.25;2048414;70;20206;-68
2021/11/17 13:06:33;;;;;;;8.65;6.15;;;;;;;8.26;67.49;93047.59;2049121;70;20357;-70
2021/11/17 13:09:17;;;;;;;7.43;5.75;;;;;;;8.47;67.47;93040.69;2048678;70;20147;-68
2021/11/17 13:11:49;;;;;;;8.20;6.38;;;;;;;8.42;66.92;93050.88;2048773;70;20139;-68
2021/11/17 13:14:36;;;;;;;9.23;6.40;;;;;;;8.46;66.72;93051.19;2048557;70;20138;-68
2021/11/17 13:17:34;;;;;;;8.48;6.40;;;;;;;8.47;67.13;93054.72;2048791;70;20177;-68
2021/11/17 13:20:38;;;;;;;9.40;6.82;;;;;;;8.53;67.16;93060.81;2047916;70;20157;-68
2021/11/17 13:23:09;;;;;;;10.98;6.93;;;;;;;8.47;67.44;93060.34;2046540;70;20173;-68
2021/11/17 13:25:47;;;;;;;12.13;6.95;;;;;;;8.16;68.60;93066.47;2048771;70;20534;-68
2021/11/17 13:28:45;;;;;;;11.95;6.78;;;;;;;8.34;68.32;93053.81;2048911;70;20161;-68
2021/11/17 13:31:31;;;;;;;9.82;6.95;;;;;;;8.28;68.24;93049.78;2048776;70;20150;-73
2021/11/17 13:34:01;;;;;;;11.75;6.53;;;;;;;8.13;68.62;93048.00;2048592;70;20139;-69
2021/11/17 13:36:41;;;;;;;10.68;7.47;;;;;;;8.11;68.69;93042.25;2048107;70;20587;-71
2021/11/17 13:39:07;;;;;;;9.77;6.60;;;;;;;8.38;68.31;93039.34;2048027;70;20161;-70
2021/11/17 13:41:34;;;;;;;12.88;7.03;;;;;;;8.31;68.57;93040.22;2048195;70;20613;-71
2021/11/17 13:44:04;;;;;;;11.13;7.68;;;;;;;8.56;67.60;93046.31;2048127;70;20221;-73
2021/11/17 13:46:32;;;;;;;13.05;9.45;;;;;;;8.13;68.79;93051.53;2047555;70;20170;-76
2021/11/17 13:48:58;;;;;;;12.43;7.93;;;;;;;8.09;68.91;93054.03;2047574;70;20147;-71
2021/11/17 13:51:26;;;;;;;12.25;8.48;;;;;;;8.29;68.78;93054.84;2047482;70;20188;-70
2021/11/17 13:53:53;;;;;;;9.63;7.40;;;;;;;7.99;69.84;93061.69;2048664;70;20153;-69
2021/11/17 13:56:27;;;;;;;15.45;8.20;;;;;;;8.09;69.67;93070.13;2048888;70;20151;-71
2021/11/17 13:58:54;;;;;;;10.48;7.68;;;;;;;8.29;68.80;93068.88;2047812;70;20155;-71
2021/11/17 14:01:20;;;;;;;13.57;8.23;;;;;;;8.17;69.19;93070.00;2048153;70;20147;-70
2021/11/17 14:03:49;;;;;;;29.75;16.38;;;;;;;8.25;68.54;93068.56;2048240;70;20611;-69
2021/11/17 14:06:17;;;;;;;13.57;8.52;;;;;;;8.28;68.65;93067.34;2048274;70;20233;-70
2021/11/17 14:08:44;;;;;;;11.65;7.78;;;;;;;8.20;69.09;93066.00;2047905;70;20162;-75
2021/11/17 14:11:11;;;;;;;11.30;7.40;;;;;;;8.38;68.69;93062.56;2048226;70;20614;-77
2021/11/17 14:13:37;;;;;;;10.43;7.07;;;;;;;8.29;69.17;93071.66;2048412;70;20163;-70
2021/11/17 14:16:04;;;;;;;12.93;7.60;;;;;;;8.39;68.83;93066.84;2048299;70;20149;-69
2021/11/17 14:18:30;;;;;;;11.82;7.80;;;;;;;8.23;68.86;93068.38;2048244;70;20588;-76
2021/11/17 14:20:57;;;;;;;11.65;8.52;;;;;;;8.19;69.29;93073.69;2048266;70;20237;-80
2021/11/17 14:23:23;;;;;;;11.00;7.85;;;;;;;8.23;68.80;93071.19;2048231;70;20142;-70
2021/11/17 14:25:49;;;;;;;11.55;7.63;;;;;;;7.94;69.94;93076.00;2048126;70;20156;-71
2021/11/17 14:28:21;;;;;;;15.55;9.18;;;;;;;8.11;69.41;93075.91;2047766;70;20151;-71
2021/11/17 14:30:58;;;;;;;13.17;8.63;;;;;;;8.27;68.82;93076.38;2048324;70;20154;-69
2021/11/17 14:33:31;;;;;;;11.80;7.65;;;;;;;8.19;69.41;93082.09;2048209;70;20155;-74
2021/11/17 14:35:57;;;;;;;10.50;7.78;;;;;;;8.07;69.51;93081.19;2048416;70;20165;-75